sensor_id;sensor_type;location;lat;lon;timestamp;temperature;humidity
61145;DHT22;47026;51.208;3.288;2022-10-31T00:01:12;12.90;99.90
61145;DHT22;47026;51.208;3.288;2022-10-31T00:03:38;12.90;99.90
61145;DHT22;47026;51.208;3.288;2022-10-31T00:06:04;12.80;99.90
61145;DHT22;47026;51.208;3.288;2022-10-31T00:08:30;12.70;99.90
61145;DHT22;47026;51.208;3.288;2022-10-31T00:10:55;12.70;99.90
61145;DHT22;47026;51.208;3.288;2022-10-31T00:13:21;12.70;99.90
61145;DHT22;47026;51.208;3.288;2022-10-31T00:15:47;12.80;99.90
61145;DHT22;47026;51.208;3.288;2022-10-31T00:18:13;12.80;99.90
61145;DHT22;47026;51.208;3.288;2022-10-31T00:20:39;12.80;99.90
61145;DHT22;47026;51.208;3.288;2022-10-31T00:23:05;12.80;99.90
61145;DHT22;47026;51.208;3.288;2022-10-31T00:25:36;12.80;99.90
61145;DHT22;47026;51.208;3.288;2022-10-31T00:28:06;12.60;99.90
61145;DHT22;47026;51.208;3.288;2022-10-31T00:30:32;12.60;99.90
61145;DHT22;47026;51.208;3.288;2022-10-31T00:32:58;12.70;99.90
61145;DHT22;47026;51.208;3.288;2022-10-31T00:35:24;12.80;99.90
61145;DHT22;47026;51.208;3.288;2022-10-31T00:37:51;12.60;99.90
61145;DHT22;47026;51.208;3.288;2022-10-31T00:40:17;12.60;99.90
61145;DHT22;47026;51.208;3.288;2022-10-31T00:42:43;12.30;99.90
61145;DHT22;47026;51.208;3.288;2022-10-31T00:45:10;12.10;99.90
61145;DHT22;47026;51.208;3.288;2022-10-31T00:47:36;12.20;99.90
61145;DHT22;47026;51.208;3.288;2022-10-31T00:50:05;12.30;99.90
61145;DHT22;47026;51.208;3.288;2022-10-31T00:52:31;12.40;99.90
61145;DHT22;47026;51.208;3.288;2022-10-31T00:54:57;12.50;99.90
61145;DHT22;47026;51.208;3.288;2022-10-31T00:57:23;12.50;99.90
61145;DHT22;47026;51.208;3.288;2022-10-31T00:59:48;12.50;99.90
61145;DHT22;47026;51.208;3.288;2022-10-31T01:02:14;12.50;99.90
61145;DHT22;47026;51.208;3.288;2022-10-31T01:04:40;12.30;99.90
61145;DHT22;47026;51.208;3.288;2022-10-31T01:07:05;12.20;99.90
61145;DHT22;47026;51.208;3.288;2022-10-31T01:09:32;12.20;99.90
61145;DHT22;47026;51.208;3.288;2022-10-31T01:11:58;12.10;99.90
61145;DHT22;47026;51.208;3.288;2022-10-31T01:14:24;11.90;99.90
61145;DHT22;47026;51.208;3.288;2022-10-31T01:16:49;11.70;99.90
61145;DHT22;47026;51.208;3.288;2022-10-31T01:19:15;11.70;99.90
61145;DHT22;47026;51.208;3.288;2022-10-31T01:21:41;11.70;99.90
61145;DHT22;47026;51.208;3.288;2022-10-31T01:24:07;11.80;99.90
61145;DHT22;47026;51.208;3.288;2022-10-31T01:26:33;11.80;99.90
61145;DHT22;47026;51.208;3.288;2022-10-31T01:29:01;11.90;99.90
61145;DHT22;47026;51.208;3.288;2022-10-31T01:31:30;12.00;99.90
61145;DHT22;47026;51.208;3.288;2022-10-31T01:33:58;11.90;99.90
61145;DHT22;47026;51.208;3.288;2022-10-31T01:38:53;12.00;99.90
61145;DHT22;47026;51.208;3.288;2022-10-31T01:41:22;12.00;99.90
61145;DHT22;47026;51.208;3.288;2022-10-31T01:43:54;12.10;99.90
61145;DHT22;47026;51.208;3.288;2022-10-31T01:46:27;12.10;99.90
61145;DHT22;47026;51.208;3.288;2022-10-31T01:48:55;12.10;99.90
61145;DHT22;47026;51.208;3.288;2022-10-31T01:51:27;12.10;99.90
61145;DHT22;47026;51.208;3.288;2022-10-31T01:53:58;12.10;99.90
61145;DHT22;47026;51.208;3.288;2022-10-31T01:56:25;12.10;99.90
61145;DHT22;47026;51.208;3.288;2022-10-31T01:58:52;12.20;99.90
61145;DHT22;47026;51.208;3.288;2022-10-31T02:01:18;12.10;99.90
61145;DHT22;47026;51.208;3.288;2022-10-31T02:03:45;12.00;99.90
61145;DHT22;47026;51.208;3.288;2022-10-31T02:08:53;12.00;99.90
61145;DHT22;47026;51.208;3.288;2022-10-31T02:11:19;12.00;99.90
61145;DHT22;47026;51.208;3.288;2022-10-31T02:13:45;11.90;99.90
61145;DHT22;47026;51.208;3.288;2022-10-31T02:16:12;12.00;99.90
61145;DHT22;47026;51.208;3.288;2022-10-31T02:18:38;12.00;99.90
61145;DHT22;47026;51.208;3.288;2022-10-31T02:21:36;12.00;99.90
61145;DHT22;47026;51.208;3.288;2022-10-31T02:27:11;12.20;99.90
61145;DHT22;47026;51.208;3.288;2022-10-31T02:32:38;12.00;99.90
61145;DHT22;47026;51.208;3.288;2022-10-31T02:38:08;12.00;99.90
61145;DHT22;47026;51.208;3.288;2022-10-31T02:40:57;12.10;99.90
61145;DHT22;47026;51.208;3.288;2022-10-31T02:43:29;12.10;99.90
61145;DHT22;47026;51.208;3.288;2022-10-31T02:48:37;12.10;99.90
61145;DHT22;47026;51.208;3.288;2022-10-31T02:51:05;12.00;99.90
61145;DHT22;47026;51.208;3.288;2022-10-31T02:53:35;12.00;99.90
61145;DHT22;47026;51.208;3.288;2022-10-31T02:56:18;12.10;99.90
61145;DHT22;47026;51.208;3.288;2022-10-31T02:59:00;12.10;99.90
61145;DHT22;47026;51.208;3.288;2022-10-31T03:15:45;12.00;99.90
61145;DHT22;47026;51.208;3.288;2022-10-31T03:18:32;12.10;99.90
61145;DHT22;47026;51.208;3.288;2022-10-31T03:21:21;12.10;99.90
61145;DHT22;47026;51.208;3.288;2022-10-31T03:23:50;12.10;99.90
61145;DHT22;47026;51.208;3.288;2022-10-31T03:26:18;12.00;99.90
61145;DHT22;47026;51.208;3.288;2022-10-31T03:29:05;11.90;99.90
61145;DHT22;47026;51.208;3.288;2022-10-31T03:32:02;11.90;99.90
61145;DHT22;47026;51.208;3.288;2022-10-31T03:34:31;11.80;99.90
61145;DHT22;47026;51.208;3.288;2022-10-31T03:37:01;11.70;99.90
61145;DHT22;47026;51.208;3.288;2022-10-31T03:39:29;11.70;99.90
61145;DHT22;47026;51.208;3.288;2022-10-31T03:42:07;11.80;99.90
61145;DHT22;47026;51.208;3.288;2022-10-31T03:44:35;11.80;99.90
61145;DHT22;47026;51.208;3.288;2022-10-31T03:47:04;11.70;99.90
61145;DHT22;47026;51.208;3.288;2022-10-31T03:49:30;11.70;99.90
61145;DHT22;47026;51.208;3.288;2022-10-31T03:52:07;11.70;99.90
61145;DHT22;47026;51.208;3.288;2022-10-31T03:57:05;11.70;99.90
61145;DHT22;47026;51.208;3.288;2022-10-31T03:59:39;11.60;99.90
61145;DHT22;47026;51.208;3.288;2022-10-31T04:02:10;11.60;99.90
61145;DHT22;47026;51.208;3.288;2022-10-31T04:04:37;11.60;99.90
61145;DHT22;47026;51.208;3.288;2022-10-31T04:07:04;11.50;99.90
61145;DHT22;47026;51.208;3.288;2022-10-31T04:09:35;11.50;99.90
61145;DHT22;47026;51.208;3.288;2022-10-31T04:12:05;11.50;99.90
61145;DHT22;47026;51.208;3.288;2022-10-31T04:14:35;11.60;99.90
61145;DHT22;47026;51.208;3.288;2022-10-31T04:17:03;11.60;99.90
61145;DHT22;47026;51.208;3.288;2022-10-31T04:19:32;11.70;99.90
61145;DHT22;47026;51.208;3.288;2022-10-31T04:21:58;11.80;99.90
61145;DHT22;47026;51.208;3.288;2022-10-31T04:24:24;11.80;99.90
61145;DHT22;47026;51.208;3.288;2022-10-31T04:26:50;11.80;99.90
61145;DHT22;47026;51.208;3.288;2022-10-31T04:29:15;11.80;99.90
61145;DHT22;47026;51.208;3.288;2022-10-31T04:31:41;11.90;99.90
61145;DHT22;47026;51.208;3.288;2022-10-31T04:34:07;12.00;99.90
61145;DHT22;47026;51.208;3.288;2022-10-31T04:36:33;12.00;99.90
61145;DHT22;47026;51.208;3.288;2022-10-31T04:38:59;11.80;99.90
61145;DHT22;47026;51.208;3.288;2022-10-31T04:41:25;11.80;99.90
61145;DHT22;47026;51.208;3.288;2022-10-31T04:43:50;11.80;99.90
61145;DHT22;47026;51.208;3.288;2022-10-31T04:46:16;11.90;99.90
61145;DHT22;47026;51.208;3.288;2022-10-31T04:48:42;11.90;99.90
61145;DHT22;47026;51.208;3.288;2022-10-31T04:51:08;11.80;99.90
61145;DHT22;47026;51.208;3.288;2022-10-31T04:53:34;11.80;99.90
61145;DHT22;47026;51.208;3.288;2022-10-31T04:55:59;11.80;99.90
61145;DHT22;47026;51.208;3.288;2022-10-31T04:58:26;11.70;99.90
61145;DHT22;47026;51.208;3.288;2022-10-31T05:00:53;11.70;99.90
61145;DHT22;47026;51.208;3.288;2022-10-31T05:03:19;11.50;99.90
61145;DHT22;47026;51.208;3.288;2022-10-31T05:05:45;11.60;99.90
61145;DHT22;47026;51.208;3.288;2022-10-31T05:08:11;11.60;99.90
61145;DHT22;47026;51.208;3.288;2022-10-31T05:10:37;11.70;99.90
61145;DHT22;47026;51.208;3.288;2022-10-31T05:13:03;11.70;99.90
61145;DHT22;47026;51.208;3.288;2022-10-31T05:15:29;11.80;99.90
61145;DHT22;47026;51.208;3.288;2022-10-31T05:17:56;11.70;99.90
61145;DHT22;47026;51.208;3.288;2022-10-31T05:20:25;11.50;99.90
61145;DHT22;47026;51.208;3.288;2022-10-31T05:22:53;11.40;99.90
61145;DHT22;47026;51.208;3.288;2022-10-31T05:25:22;11.60;99.90
61145;DHT22;47026;51.208;3.288;2022-10-31T05:27:49;11.70;99.90
61145;DHT22;47026;51.208;3.288;2022-10-31T05:30:19;11.60;99.90
61145;DHT22;47026;51.208;3.288;2022-10-31T05:32:47;11.60;99.90
61145;DHT22;47026;51.208;3.288;2022-10-31T05:35:20;11.60;99.90
61145;DHT22;47026;51.208;3.288;2022-10-31T05:37:47;11.60;99.90
61145;DHT22;47026;51.208;3.288;2022-10-31T05:40:14;11.70;99.90
61145;DHT22;47026;51.208;3.288;2022-10-31T05:42:41;11.70;99.90
61145;DHT22;47026;51.208;3.288;2022-10-31T05:45:09;11.70;99.90
61145;DHT22;47026;51.208;3.288;2022-10-31T05:47:36;11.70;99.90
61145;DHT22;47026;51.208;3.288;2022-10-31T05:50:02;11.70;99.90
61145;DHT22;47026;51.208;3.288;2022-10-31T05:52:28;11.70;99.90
61145;DHT22;47026;51.208;3.288;2022-10-31T05:54:53;11.60;99.90
61145;DHT22;47026;51.208;3.288;2022-10-31T05:57:19;11.60;99.90
61145;DHT22;47026;51.208;3.288;2022-10-31T05:59:45;11.60;99.90
61145;DHT22;47026;51.208;3.288;2022-10-31T06:02:11;11.60;99.90
61145;DHT22;47026;51.208;3.288;2022-10-31T06:04:37;11.50;99.90
61145;DHT22;47026;51.208;3.288;2022-10-31T06:07:02;11.40;99.90
61145;DHT22;47026;51.208;3.288;2022-10-31T06:09:28;11.40;99.90
61145;DHT22;47026;51.208;3.288;2022-10-31T06:11:54;11.30;99.90
61145;DHT22;47026;51.208;3.288;2022-10-31T06:14:20;11.20;99.90
61145;DHT22;47026;51.208;3.288;2022-10-31T06:16:46;11.20;99.90
61145;DHT22;47026;51.208;3.288;2022-10-31T06:19:12;11.30;99.90
61145;DHT22;47026;51.208;3.288;2022-10-31T06:21:37;11.30;99.90
61145;DHT22;47026;51.208;3.288;2022-10-31T06:24:03;11.30;99.90
61145;DHT22;47026;51.208;3.288;2022-10-31T06:26:29;11.40;99.90
61145;DHT22;47026;51.208;3.288;2022-10-31T06:28:55;11.50;99.90
61145;DHT22;47026;51.208;3.288;2022-10-31T06:31:21;11.60;99.90
61145;DHT22;47026;51.208;3.288;2022-10-31T06:33:47;11.50;99.90
61145;DHT22;47026;51.208;3.288;2022-10-31T06:36:12;11.40;99.90
61145;DHT22;47026;51.208;3.288;2022-10-31T06:38:39;11.40;99.90
61145;DHT22;47026;51.208;3.288;2022-10-31T06:41:05;11.40;99.90
61145;DHT22;47026;51.208;3.288;2022-10-31T06:43:31;11.40;99.90
61145;DHT22;47026;51.208;3.288;2022-10-31T06:45:57;11.40;99.90
61145;DHT22;47026;51.208;3.288;2022-10-31T06:48:26;11.40;99.90
61145;DHT22;47026;51.208;3.288;2022-10-31T06:50:52;11.50;99.90
61145;DHT22;47026;51.208;3.288;2022-10-31T06:53:18;11.40;99.90
61145;DHT22;47026;51.208;3.288;2022-10-31T06:55:43;11.40;99.90
61145;DHT22;47026;51.208;3.288;2022-10-31T06:58:10;11.40;99.90
61145;DHT22;47026;51.208;3.288;2022-10-31T07:00:36;11.50;99.90
61145;DHT22;47026;51.208;3.288;2022-10-31T07:03:03;11.60;99.90
61145;DHT22;47026;51.208;3.288;2022-10-31T07:05:29;11.70;99.90
61145;DHT22;47026;51.208;3.288;2022-10-31T07:07:57;11.70;99.90
61145;DHT22;47026;51.208;3.288;2022-10-31T07:10:25;11.90;99.90
61145;DHT22;47026;51.208;3.288;2022-10-31T07:12:55;12.00;99.90
61145;DHT22;47026;51.208;3.288;2022-10-31T07:15:22;12.10;99.90
61145;DHT22;47026;51.208;3.288;2022-10-31T07:17:48;12.00;99.90
61145;DHT22;47026;51.208;3.288;2022-10-31T07:20:13;12.00;99.90
61145;DHT22;47026;51.208;3.288;2022-10-31T07:22:39;12.00;99.90
61145;DHT22;47026;51.208;3.288;2022-10-31T07:25:05;12.00;99.90
61145;DHT22;47026;51.208;3.288;2022-10-31T07:27:38;12.00;99.90
61145;DHT22;47026;51.208;3.288;2022-10-31T07:30:08;12.00;99.90
61145;DHT22;47026;51.208;3.288;2022-10-31T07:32:41;12.00;99.90
61145;DHT22;47026;51.208;3.288;2022-10-31T07:35:09;12.10;99.90
61145;DHT22;47026;51.208;3.288;2022-10-31T07:37:35;12.20;99.90
61145;DHT22;47026;51.208;3.288;2022-10-31T07:40:01;12.10;99.90
61145;DHT22;47026;51.208;3.288;2022-10-31T07:42:27;12.10;99.90
61145;DHT22;47026;51.208;3.288;2022-10-31T07:44:53;12.20;99.90
61145;DHT22;47026;51.208;3.288;2022-10-31T07:47:18;12.30;99.90
61145;DHT22;47026;51.208;3.288;2022-10-31T07:49:44;12.40;99.90
61145;DHT22;47026;51.208;3.288;2022-10-31T07:52:10;12.30;99.90
61145;DHT22;47026;51.208;3.288;2022-10-31T07:54:35;12.40;99.90
61145;DHT22;47026;51.208;3.288;2022-10-31T07:57:01;12.50;99.90
61145;DHT22;47026;51.208;3.288;2022-10-31T07:59:27;12.70;99.90
61145;DHT22;47026;51.208;3.288;2022-10-31T08:01:52;13.00;99.90
61145;DHT22;47026;51.208;3.288;2022-10-31T08:04:18;13.20;99.90
61145;DHT22;47026;51.208;3.288;2022-10-31T08:06:43;13.30;99.90
61145;DHT22;47026;51.208;3.288;2022-10-31T08:09:09;13.40;99.90
61145;DHT22;47026;51.208;3.288;2022-10-31T08:11:35;13.90;99.90
61145;DHT22;47026;51.208;3.288;2022-10-31T08:14:01;14.20;99.90
61145;DHT22;47026;51.208;3.288;2022-10-31T08:16:26;14.20;99.90
61145;DHT22;47026;51.208;3.288;2022-10-31T08:18:53;14.10;99.90
61145;DHT22;47026;51.208;3.288;2022-10-31T08:21:21;14.30;99.90
61145;DHT22;47026;51.208;3.288;2022-10-31T08:23:47;14.50;99.90
61145;DHT22;47026;51.208;3.288;2022-10-31T08:26:13;14.90;99.90
61145;DHT22;47026;51.208;3.288;2022-10-31T08:28:38;15.70;99.90
61145;DHT22;47026;51.208;3.288;2022-10-31T08:31:04;16.70;99.90
61145;DHT22;47026;51.208;3.288;2022-10-31T08:33:31;17.40;99.90
61145;DHT22;47026;51.208;3.288;2022-10-31T08:36:00;17.20;99.90
61145;DHT22;47026;51.208;3.288;2022-10-31T08:38:26;17.30;99.90
61145;DHT22;47026;51.208;3.288;2022-10-31T08:40:51;17.30;99.90
61145;DHT22;47026;51.208;3.288;2022-10-31T08:43:17;17.10;99.90
61145;DHT22;47026;51.208;3.288;2022-10-31T08:45:47;16.80;99.90
61145;DHT22;47026;51.208;3.288;2022-10-31T08:48:14;16.60;99.90
61145;DHT22;47026;51.208;3.288;2022-10-31T08:50:41;16.90;99.90
61145;DHT22;47026;51.208;3.288;2022-10-31T08:53:13;17.60;99.90
61145;DHT22;47026;51.208;3.288;2022-10-31T08:55:40;18.30;99.90
61145;DHT22;47026;51.208;3.288;2022-10-31T08:58:11;19.20;99.90
61145;DHT22;47026;51.208;3.288;2022-10-31T09:00:38;19.70;99.90
61145;DHT22;47026;51.208;3.288;2022-10-31T09:03:10;19.00;99.90
61145;DHT22;47026;51.208;3.288;2022-10-31T09:05:36;18.40;99.90
61145;DHT22;47026;51.208;3.288;2022-10-31T09:08:04;18.00;99.90
61145;DHT22;47026;51.208;3.288;2022-10-31T09:10:32;17.70;99.90
61145;DHT22;47026;51.208;3.288;2022-10-31T09:13:00;17.40;99.90
61145;DHT22;47026;51.208;3.288;2022-10-31T09:15:27;17.10;99.90
61145;DHT22;47026;51.208;3.288;2022-10-31T09:17:54;17.00;99.90
61145;DHT22;47026;51.208;3.288;2022-10-31T09:20:20;16.50;99.90
61145;DHT22;47026;51.208;3.288;2022-10-31T09:22:46;16.30;99.90
61145;DHT22;47026;51.208;3.288;2022-10-31T09:25:12;16.20;99.90
61145;DHT22;47026;51.208;3.288;2022-10-31T09:27:38;16.10;99.90
61145;DHT22;47026;51.208;3.288;2022-10-31T09:30:05;16.20;99.90
61145;DHT22;47026;51.208;3.288;2022-10-31T09:32:31;16.30;99.90
61145;DHT22;47026;51.208;3.288;2022-10-31T09:34:56;16.10;99.90
61145;DHT22;47026;51.208;3.288;2022-10-31T09:37:22;16.20;99.90
61145;DHT22;47026;51.208;3.288;2022-10-31T09:39:48;16.30;99.90
61145;DHT22;47026;51.208;3.288;2022-10-31T09:42:25;16.20;99.90
61145;DHT22;47026;51.208;3.288;2022-10-31T09:47:59;16.00;99.90
61145;DHT22;47026;51.208;3.288;2022-10-31T09:50:51;15.70;99.90
61145;DHT22;47026;51.208;3.288;2022-10-31T09:53:43;15.90;99.90
61145;DHT22;47026;51.208;3.288;2022-10-31T09:56:15;16.20;99.90
61145;DHT22;47026;51.208;3.288;2022-10-31T09:58:50;16.20;99.90
61145;DHT22;47026;51.208;3.288;2022-10-31T10:04:27;16.40;99.90
61145;DHT22;47026;51.208;3.288;2022-10-31T10:06:47;16.30;99.90
61145;DHT22;47026;51.208;3.288;2022-10-31T10:09:15;16.20;99.90
61145;DHT22;47026;51.208;3.288;2022-10-31T10:14:56;16.30;99.90
61145;DHT22;47026;51.208;3.288;2022-10-31T10:17:40;16.70;99.90
61145;DHT22;47026;51.208;3.288;2022-10-31T10:25:37;16.70;99.90
61145;DHT22;47026;51.208;3.288;2022-10-31T10:30:43;16.40;99.90
61145;DHT22;47026;51.208;3.288;2022-10-31T10:33:14;16.40;99.90
61145;DHT22;47026;51.208;3.288;2022-10-31T10:36:10;16.70;99.90
61145;DHT22;47026;51.208;3.288;2022-10-31T10:38:39;17.00;99.90
61145;DHT22;47026;51.208;3.288;2022-10-31T10:41:19;17.10;99.90
61145;DHT22;47026;51.208;3.288;2022-10-31T10:43:45;17.10;99.90
61145;DHT22;47026;51.208;3.288;2022-10-31T10:46:18;17.00;99.90
61145;DHT22;47026;51.208;3.288;2022-10-31T10:57:41;16.90;99.90
61145;DHT22;47026;51.208;3.288;2022-10-31T11:00:21;17.20;99.90
61145;DHT22;47026;51.208;3.288;2022-10-31T11:02:47;17.40;99.90
61145;DHT22;47026;51.208;3.288;2022-10-31T11:07:53;17.40;99.90
61145;DHT22;47026;51.208;3.288;2022-10-31T11:10:19;17.70;99.90
61145;DHT22;47026;51.208;3.288;2022-10-31T11:13:00;18.00;99.90
61145;DHT22;47026;51.208;3.288;2022-10-31T11:15:27;18.30;99.90
61145;DHT22;47026;51.208;3.288;2022-10-31T11:17:55;18.30;99.90
61145;DHT22;47026;51.208;3.288;2022-10-31T11:20:33;18.50;99.90
61145;DHT22;47026;51.208;3.288;2022-10-31T11:26:05;19.00;99.90
61145;DHT22;47026;51.208;3.288;2022-10-31T11:28:33;19.30;99.90
61145;DHT22;47026;51.208;3.288;2022-10-31T11:31:12;18.50;99.90
61145;DHT22;47026;51.208;3.288;2022-10-31T11:33:45;17.80;99.90
61145;DHT22;47026;51.208;3.288;2022-10-31T11:36:31;17.60;99.90
61145;DHT22;47026;51.208;3.288;2022-10-31T11:38:59;17.80;99.90
61145;DHT22;47026;51.208;3.288;2022-10-31T11:41:35;17.90;99.90
61145;DHT22;47026;51.208;3.288;2022-10-31T11:46:39;18.10;99.90
61145;DHT22;47026;51.208;3.288;2022-10-31T11:49:19;18.30;99.90
61145;DHT22;47026;51.208;3.288;2022-10-31T11:51:53;18.70;99.90
61145;DHT22;47026;51.208;3.288;2022-10-31T11:54:29;19.30;99.90
61145;DHT22;47026;51.208;3.288;2022-10-31T11:56:55;19.60;99.90
61145;DHT22;47026;51.208;3.288;2022-10-31T12:01:50;19.50;99.90
61145;DHT22;47026;51.208;3.288;2022-10-31T12:04:17;19.50;99.90
61145;DHT22;47026;51.208;3.288;2022-10-31T12:06:44;19.70;99.90
61145;DHT22;47026;51.208;3.288;2022-10-31T12:09:27;19.30;99.90
61145;DHT22;47026;51.208;3.288;2022-10-31T12:12:14;19.40;99.90
61145;DHT22;47026;51.208;3.288;2022-10-31T12:17:19;19.40;99.90
61145;DHT22;47026;51.208;3.288;2022-10-31T12:23:06;19.60;99.90
61145;DHT22;47026;51.208;3.288;2022-10-31T12:25:55;19.40;99.90
61145;DHT22;47026;51.208;3.288;2022-10-31T12:28:44;19.70;99.90
61145;DHT22;47026;51.208;3.288;2022-10-31T12:34:22;19.40;99.90
61145;DHT22;47026;51.208;3.288;2022-10-31T12:37:04;19.00;99.90
61145;DHT22;47026;51.208;3.288;2022-10-31T12:39:57;18.60;99.90
61145;DHT22;47026;51.208;3.288;2022-10-31T12:56:08;17.70;99.90
61145;DHT22;47026;51.208;3.288;2022-10-31T12:58:53;17.80;99.90
61145;DHT22;47026;51.208;3.288;2022-10-31T13:04:12;17.50;99.90
61145;DHT22;47026;51.208;3.288;2022-10-31T13:06:45;17.60;99.90
61145;DHT22;47026;51.208;3.288;2022-10-31T13:09:20;17.60;99.90
61145;DHT22;47026;51.208;3.288;2022-10-31T13:11:56;17.50;99.90
61145;DHT22;47026;51.208;3.288;2022-10-31T13:14:42;17.50;99.90
61145;DHT22;47026;51.208;3.288;2022-10-31T13:22:54;17.50;99.90
61145;DHT22;47026;51.208;3.288;2022-10-31T13:25:46;17.80;99.90
61145;DHT22;47026;51.208;3.288;2022-10-31T13:28:44;18.00;99.90
61145;DHT22;47026;51.208;3.288;2022-10-31T13:31:12;18.00;99.90
61145;DHT22;47026;51.208;3.288;2022-10-31T13:33:51;18.50;99.90
61145;DHT22;47026;51.208;3.288;2022-10-31T13:36:35;18.50;99.90
61145;DHT22;47026;51.208;3.288;2022-10-31T13:41:54;18.20;99.90
61145;DHT22;47026;51.208;3.288;2022-10-31T13:44:27;18.30;99.90
61145;DHT22;47026;51.208;3.288;2022-10-31T13:46:55;18.50;99.90
61145;DHT22;47026;51.208;3.288;2022-10-31T13:54:49;18.60;99.90
61145;DHT22;47026;51.208;3.288;2022-10-31T14:00:22;19.00;99.90
61145;DHT22;47026;51.208;3.288;2022-10-31T14:02:50;18.90;99.90
61145;DHT22;47026;51.208;3.288;2022-10-31T14:05:30;18.70;99.90
61145;DHT22;47026;51.208;3.288;2022-10-31T14:07:58;19.10;99.90
61145;DHT22;47026;51.208;3.288;2022-10-31T14:13:07;19.00;99.90
61145;DHT22;47026;51.208;3.288;2022-10-31T14:15:34;19.00;99.90
61145;DHT22;47026;51.208;3.288;2022-10-31T14:18:22;18.50;99.90
61145;DHT22;47026;51.208;3.288;2022-10-31T14:20:48;18.70;99.90
61145;DHT22;47026;51.208;3.288;2022-10-31T14:28:53;18.60;99.90
61145;DHT22;47026;51.208;3.288;2022-10-31T14:31:43;18.70;99.90
61145;DHT22;47026;51.208;3.288;2022-10-31T14:34:28;18.50;99.90
61145;DHT22;47026;51.208;3.288;2022-10-31T14:39:39;18.00;99.90
61145;DHT22;47026;51.208;3.288;2022-10-31T14:42:29;17.70;99.90
61145;DHT22;47026;51.208;3.288;2022-10-31T14:48:34;17.40;99.90
61145;DHT22;47026;51.208;3.288;2022-10-31T14:51:10;17.20;99.90
61145;DHT22;47026;51.208;3.288;2022-10-31T14:53:47;17.20;99.90
61145;DHT22;47026;51.208;3.288;2022-10-31T14:56:22;17.10;99.90
61145;DHT22;47026;51.208;3.288;2022-10-31T14:58:49;17.10;99.90
61145;DHT22;47026;51.208;3.288;2022-10-31T15:01:25;17.00;99.90
61145;DHT22;47026;51.208;3.288;2022-10-31T15:03:55;16.90;99.90
61145;DHT22;47026;51.208;3.288;2022-10-31T15:06:23;16.70;99.90
61145;DHT22;47026;51.208;3.288;2022-10-31T15:08:52;16.70;99.90
61145;DHT22;47026;51.208;3.288;2022-10-31T15:11:21;16.70;99.90
61145;DHT22;47026;51.208;3.288;2022-10-31T15:13:50;16.70;99.90
61145;DHT22;47026;51.208;3.288;2022-10-31T15:16:24;16.70;99.90
61145;DHT22;47026;51.208;3.288;2022-10-31T15:19:22;16.90;99.90
61145;DHT22;47026;51.208;3.288;2022-10-31T15:21:51;17.00;99.90
61145;DHT22;47026;51.208;3.288;2022-10-31T15:24:17;17.10;99.90
61145;DHT22;47026;51.208;3.288;2022-10-31T15:26:49;16.90;99.90
61145;DHT22;47026;51.208;3.288;2022-10-31T15:29:25;17.00;99.90
61145;DHT22;47026;51.208;3.288;2022-10-31T15:34:42;16.80;99.90
61145;DHT22;47026;51.208;3.288;2022-10-31T15:37:15;16.90;99.90
61145;DHT22;47026;51.208;3.288;2022-10-31T15:39:42;16.90;99.90
61145;DHT22;47026;51.208;3.288;2022-10-31T15:42:44;16.90;99.90
61145;DHT22;47026;51.208;3.288;2022-10-31T15:45:16;16.70;99.90
61145;DHT22;47026;51.208;3.288;2022-10-31T15:48:11;16.60;99.90
61145;DHT22;47026;51.208;3.288;2022-10-31T15:50:41;16.70;99.90
61145;DHT22;47026;51.208;3.288;2022-10-31T15:53:17;16.70;99.90
61145;DHT22;47026;51.208;3.288;2022-10-31T15:55:57;16.60;99.90
61145;DHT22;47026;51.208;3.288;2022-10-31T15:58:24;16.50;99.90
61145;DHT22;47026;51.208;3.288;2022-10-31T16:01:32;16.40;99.90
61145;DHT22;47026;51.208;3.288;2022-10-31T16:06:36;16.50;99.90
61145;DHT22;47026;51.208;3.288;2022-10-31T16:09:03;16.40;99.90
61145;DHT22;47026;51.208;3.288;2022-10-31T16:11:37;16.30;99.90
61145;DHT22;47026;51.208;3.288;2022-10-31T16:16:46;16.30;99.90
61145;DHT22;47026;51.208;3.288;2022-10-31T16:19:24;16.30;99.90
61145;DHT22;47026;51.208;3.288;2022-10-31T16:22:02;16.30;99.90
61145;DHT22;47026;51.208;3.288;2022-10-31T16:24:31;16.20;99.90
61145;DHT22;47026;51.208;3.288;2022-10-31T16:27:19;16.10;99.90
61145;DHT22;47026;51.208;3.288;2022-10-31T16:29:48;16.00;99.90
61145;DHT22;47026;51.208;3.288;2022-10-31T16:32:24;15.90;99.90
61145;DHT22;47026;51.208;3.288;2022-10-31T16:37:41;15.60;99.90
61145;DHT22;47026;51.208;3.288;2022-10-31T16:40:12;15.60;99.90
61145;DHT22;47026;51.208;3.288;2022-10-31T16:42:42;15.80;99.90
61145;DHT22;47026;51.208;3.288;2022-10-31T16:45:14;15.70;99.90
61145;DHT22;47026;51.208;3.288;2022-10-31T16:47:41;15.80;99.90
61145;DHT22;47026;51.208;3.288;2022-10-31T16:50:23;15.80;99.90
61145;DHT22;47026;51.208;3.288;2022-10-31T16:52:49;15.80;99.90
61145;DHT22;47026;51.208;3.288;2022-10-31T16:55:17;15.60;99.90
61145;DHT22;47026;51.208;3.288;2022-10-31T16:57:47;15.50;99.90
61145;DHT22;47026;51.208;3.288;2022-10-31T17:00:21;15.40;99.90
61145;DHT22;47026;51.208;3.288;2022-10-31T17:02:49;15.40;99.90
61145;DHT22;47026;51.208;3.288;2022-10-31T17:05:17;15.30;99.90
61145;DHT22;47026;51.208;3.288;2022-10-31T17:07:44;15.30;99.90
61145;DHT22;47026;51.208;3.288;2022-10-31T17:10:11;15.40;99.90
61145;DHT22;47026;51.208;3.288;2022-10-31T17:12:42;15.50;99.90
61145;DHT22;47026;51.208;3.288;2022-10-31T17:15:20;15.50;99.90
61145;DHT22;47026;51.208;3.288;2022-10-31T17:17:47;15.60;99.90
61145;DHT22;47026;51.208;3.288;2022-10-31T17:20:27;15.60;99.90
61145;DHT22;47026;51.208;3.288;2022-10-31T17:22:54;15.50;99.90
61145;DHT22;47026;51.208;3.288;2022-10-31T17:25:23;15.60;99.90
61145;DHT22;47026;51.208;3.288;2022-10-31T17:27:49;15.50;99.90
61145;DHT22;47026;51.208;3.288;2022-10-31T17:30:16;15.40;99.90
61145;DHT22;47026;51.208;3.288;2022-10-31T17:32:44;15.50;99.90
61145;DHT22;47026;51.208;3.288;2022-10-31T17:35:11;15.50;99.90
61145;DHT22;47026;51.208;3.288;2022-10-31T17:37:42;15.50;99.90
61145;DHT22;47026;51.208;3.288;2022-10-31T17:40:10;15.50;99.90
61145;DHT22;47026;51.208;3.288;2022-10-31T17:42:36;15.50;99.90
61145;DHT22;47026;51.208;3.288;2022-10-31T17:45:02;15.40;99.90
61145;DHT22;47026;51.208;3.288;2022-10-31T17:47:28;15.40;99.90
61145;DHT22;47026;51.208;3.288;2022-10-31T17:49:53;15.40;99.90
61145;DHT22;47026;51.208;3.288;2022-10-31T17:52:20;15.50;99.90
61145;DHT22;47026;51.208;3.288;2022-10-31T17:54:45;15.50;99.90
61145;DHT22;47026;51.208;3.288;2022-10-31T17:57:11;15.60;99.90
61145;DHT22;47026;51.208;3.288;2022-10-31T17:59:37;15.60;99.90
61145;DHT22;47026;51.208;3.288;2022-10-31T18:02:03;15.70;99.90
61145;DHT22;47026;51.208;3.288;2022-10-31T18:04:34;15.70;99.90
61145;DHT22;47026;51.208;3.288;2022-10-31T18:07:00;15.80;99.90